createdAt,value
2017-07-15T00:01:23.173Z,100839.19
2017-07-15T00:03:51.527Z,100840.05
2017-07-15T00:06:20.285Z,100837.16
2017-07-15T00:08:48.643Z,100836.04
2017-07-15T00:11:17.005Z,100835.45
2017-07-15T00:13:45.351Z,100840.19
2017-07-15T00:16:14.099Z,100842.70
2017-07-15T00:18:42.668Z,100840.63
2017-07-15T00:21:11.230Z,100847.97
2017-07-15T00:23:39.580Z,100851.19
2017-07-15T00:26:08.327Z,100848.66
2017-07-15T00:28:36.684Z,100852.09
2017-07-15T00:31:05.041Z,100849.74
2017-07-15T00:33:33.795Z,100854.33
2017-07-15T00:36:02.139Z,100859.31
2017-07-15T00:38:30.504Z,100855.52
2017-07-15T00:40:58.851Z,100852.70
2017-07-15T00:43:27.618Z,100849.25
2017-07-15T00:45:55.976Z,100856.06
2017-07-15T00:48:24.559Z,100856.91
2017-07-15T00:50:52.904Z,100858.39
2017-07-15T00:53:21.269Z,100850.80
2017-07-15T00:55:50.027Z,100869.30
2017-07-15T00:58:18.384Z,100858.82
2017-07-15T01:00:46.747Z,100858.82
2017-07-15T01:03:15.094Z,100858.39
2017-07-15T01:05:43.757Z,100862.80
2017-07-15T01:08:12.099Z,100860.98
2017-07-15T01:10:40.455Z,100867.92
2017-07-15T01:13:08.820Z,100872.37
2017-07-15T01:15:37.171Z,100878.58
2017-07-15T01:18:05.539Z,100869.38
2017-07-15T01:20:33.891Z,100873.53
2017-07-15T01:23:02.268Z,100875.07
2017-07-15T01:25:30.624Z,100873.05
2017-07-15T01:27:59.140Z,100878.05
2017-07-15T01:30:27.487Z,100869.55
2017-07-15T01:32:55.848Z,100873.94
2017-07-15T01:35:24.617Z,100874.88
2017-07-15T01:37:52.963Z,100880.69
2017-07-15T01:40:21.315Z,100879.12
2017-07-15T01:42:49.664Z,100880.00
2017-07-15T01:45:18.027Z,100884.97
2017-07-15T01:47:46.371Z,100890.48
2017-07-15T01:50:14.957Z,100887.38
2017-07-15T01:52:43.308Z,100891.41
2017-07-15T01:55:11.651Z,100891.94
2017-07-15T01:57:40.000Z,100893.38
2017-07-15T02:00:08.377Z,100892.84
2017-07-15T02:02:37.011Z,100889.23
2017-07-15T02:05:05.760Z,100892.03
2017-07-15T02:07:36.436Z,100893.66
2017-07-15T02:10:05.175Z,100895.77
2017-07-15T02:12:33.526Z,100891.74
2017-07-15T02:15:01.875Z,100897.36
2017-07-15T02:17:30.411Z,100900.28
2017-07-15T02:22:26.411Z,100899.28
2017-07-15T02:24:55.163Z,100903.58
2017-07-15T02:27:23.544Z,100906.89
2017-07-15T02:29:51.909Z,100905.91
2017-07-15T02:32:20.265Z,100911.05
2017-07-15T02:34:48.924Z,100909.78
2017-07-15T02:37:17.668Z,100909.20
2017-07-15T02:39:46.010Z,100906.84
2017-07-15T02:42:14.582Z,100910.41
2017-07-15T02:44:43.316Z,100914.76
2017-07-15T02:47:11.680Z,100906.73
2017-07-15T02:49:40.034Z,100917.84
2017-07-15T02:52:08.401Z,100919.05
2017-07-15T02:54:37.160Z,100921.59
2017-07-15T02:57:05.528Z,100924.80
2017-07-15T02:59:33.877Z,100922.80
2017-07-15T03:02:02.583Z,100922.88
2017-07-15T03:04:30.931Z,100922.23
2017-07-15T03:06:59.600Z,100924.09
2017-07-15T03:09:28.347Z,100927.91
2017-07-15T03:11:56.695Z,100935.73
2017-07-15T03:14:25.060Z,100932.44
2017-07-15T03:16:53.808Z,100937.80
2017-07-15T03:19:22.280Z,100942.39
2017-07-15T03:21:50.632Z,100937.78
2017-07-15T03:24:18.987Z,100939.34
2017-07-15T03:27:05.633Z,100937.30
2017-07-15T03:29:34.004Z,100947.59
2017-07-15T03:32:02.346Z,100944.75
2017-07-15T03:34:31.397Z,100951.27
2017-07-15T03:36:59.749Z,100955.63
2017-07-15T03:39:28.105Z,100949.13
2017-07-15T03:41:56.855Z,100960.55
2017-07-15T03:44:25.197Z,100956.58
2017-07-15T03:46:53.557Z,100961.64
2017-07-15T03:49:22.298Z,100963.91
2017-07-15T03:51:50.691Z,100967.81
2017-07-15T03:54:19.036Z,100976.33
2017-07-15T03:56:47.505Z,100973.48
2017-07-15T03:59:15.851Z,100975.69
2017-07-15T04:01:44.591Z,100979.63
2017-07-15T04:04:12.947Z,100983.58
2017-07-15T04:06:41.308Z,100979.08
2017-07-15T04:09:10.055Z,100984.38
2017-07-15T04:11:38.409Z,100987.47
2017-07-15T04:14:06.895Z,100988.82
2017-07-15T04:16:35.230Z,100989.17
2017-07-15T04:19:03.571Z,100991.93
2017-07-15T04:21:31.937Z,100991.38
2017-07-15T04:24:00.297Z,100990.25
2017-07-15T04:26:28.647Z,100990.70
2017-07-15T04:28:57.387Z,100991.61
2017-07-15T04:31:25.739Z,100994.63
2017-07-15T04:33:54.088Z,100997.30
2017-07-15T04:36:22.847Z,101004.59
2017-07-15T04:38:51.188Z,101010.02
2017-07-15T04:41:19.540Z,101005.83
2017-07-15T04:43:48.288Z,101014.80
2017-07-15T04:46:16.627Z,101017.50
2017-07-15T04:48:44.997Z,101014.80
2017-07-15T04:51:13.346Z,101014.00
2017-07-15T04:53:41.712Z,101019.09
2017-07-15T04:56:10.067Z,101011.73
2017-07-15T04:58:38.424Z,101012.59
2017-07-15T05:01:06.779Z,101011.05
2017-07-15T05:03:35.839Z,101010.25
2017-07-15T05:06:04.181Z,101012.59
2017-07-15T05:08:32.525Z,101014.22
2017-07-15T05:11:01.291Z,101017.97
2017-07-15T05:13:29.632Z,101021.04
2017-07-15T05:15:57.992Z,101014.83
2017-07-15T05:18:26.333Z,101023.84
2017-07-15T05:20:55.000Z,101021.73
2017-07-15T05:23:23.341Z,101026.87
2017-07-15T05:25:51.689Z,101026.18
2017-07-15T05:28:20.044Z,101027.71
2017-07-15T05:30:48.388Z,101030.89
2017-07-15T05:33:16.901Z,101028.10
2017-07-15T05:35:45.251Z,101033.68
2017-07-15T05:38:13.660Z,101029.94
2017-07-15T05:40:42.025Z,101033.28
2017-07-15T05:43:10.386Z,101037.23
2017-07-15T05:45:38.758Z,101045.34
2017-07-15T05:48:07.109Z,101047.41
2017-07-15T05:50:35.870Z,101050.77
2017-07-15T05:53:04.226Z,101052.38
2017-07-15T05:55:32.730Z,101058.96
2017-07-15T05:58:01.085Z,101056.23
2017-07-15T06:00:29.430Z,101059.04
2017-07-15T06:02:57.779Z,101065.59
2017-07-15T06:05:26.149Z,101069.41
2017-07-15T06:07:54.714Z,101071.37
2017-07-15T06:10:23.059Z,101072.28
2017-07-15T06:12:51.924Z,101080.14
2017-07-15T06:15:20.274Z,101079.80
2017-07-15T06:17:48.897Z,101084.45
2017-07-15T06:20:17.660Z,101083.30
2017-07-15T06:22:46.010Z,101083.98
2017-07-15T06:25:14.363Z,101094.78
2017-07-15T06:27:42.763Z,101093.14
2017-07-15T06:30:11.114Z,101091.00
2017-07-15T06:32:39.851Z,101094.94
2017-07-15T06:35:08.365Z,101090.83
2017-07-15T06:37:36.707Z,101095.05
2017-07-15T06:40:05.061Z,101097.85
2017-07-15T06:42:33.410Z,101095.11
2017-07-15T06:45:02.156Z,101104.29
2017-07-15T06:47:30.545Z,101106.06
2017-07-15T06:49:58.901Z,101119.84
2017-07-15T06:52:27.252Z,101114.77
2017-07-15T06:54:55.591Z,101112.64
2017-07-15T06:57:23.944Z,101116.67
2017-07-15T06:59:52.306Z,101117.03
2017-07-15T07:02:20.808Z,101121.70
2017-07-15T07:04:49.165Z,101122.97
2017-07-15T07:07:17.517Z,101122.66
2017-07-15T07:09:46.280Z,101124.38
2017-07-15T07:12:14.630Z,101127.27
2017-07-15T07:14:42.979Z,101122.28
2017-07-15T07:17:11.353Z,101133.80
2017-07-15T07:19:40.103Z,101135.13
2017-07-15T07:22:08.439Z,101139.18
2017-07-15T07:24:36.800Z,101138.16
2017-07-15T07:27:05.531Z,101140.33
2017-07-15T07:29:33.893Z,101148.14
2017-07-15T07:32:02.242Z,101149.16
2017-07-15T07:34:31.200Z,101151.82
2017-07-15T07:36:59.542Z,101153.95
2017-07-15T07:39:27.949Z,101154.54
2017-07-15T07:41:56.314Z,101151.52
2017-07-15T07:44:24.667Z,101159.25
2017-07-15T07:46:53.016Z,101154.98
2017-07-15T07:49:21.355Z,101160.22
2017-07-15T07:51:49.711Z,101158.63
2017-07-15T07:54:18.056Z,101156.02
2017-07-15T07:56:46.803Z,101165.73
2017-07-15T07:59:15.163Z,101170.94
2017-07-15T08:01:43.702Z,101163.83
2017-07-15T08:04:12.053Z,101171.98
2017-07-15T08:06:40.533Z,101173.78
2017-07-15T08:09:08.887Z,101166.18
2017-07-15T08:11:37.252Z,101172.56
2017-07-15T08:14:05.685Z,101170.63
2017-07-15T08:16:34.167Z,101169.48
2017-07-15T08:19:04.880Z,101175.89
2017-07-15T08:21:33.563Z,101179.83
2017-07-15T08:24:01.934Z,101174.71
2017-07-15T08:26:30.297Z,101173.31
2017-07-15T08:28:58.807Z,101178.50
2017-07-15T08:31:27.161Z,101188.02
2017-07-15T08:33:55.513Z,101187.41
2017-07-15T08:36:24.262Z,101188.00
2017-07-15T08:38:52.627Z,101181.95
2017-07-15T08:41:20.975Z,101191.16
2017-07-15T08:43:49.316Z,101188.71
2017-07-15T08:46:17.675Z,101190.36
2017-07-15T08:48:46.014Z,101192.67
2017-07-15T08:51:14.372Z,101191.67
2017-07-15T08:53:43.128Z,101190.28
2017-07-15T08:56:11.909Z,101194.97
2017-07-15T08:58:40.541Z,101192.73
2017-07-15T09:01:09.289Z,101191.94
2017-07-15T09:03:37.650Z,101198.43
2017-07-15T09:06:06.000Z,101201.92
2017-07-15T09:08:34.351Z,101203.42
2017-07-15T09:11:02.704Z,101202.24
2017-07-15T09:13:31.055Z,101196.67
2017-07-15T09:15:59.396Z,101202.67
2017-07-15T09:18:28.153Z,101198.14
2017-07-15T09:20:56.524Z,101203.67
2017-07-15T09:23:25.101Z,101205.71
2017-07-15T09:25:53.449Z,101208.74
2017-07-15T09:28:21.826Z,101204.38
2017-07-15T09:30:50.185Z,101204.16
2017-07-15T09:33:19.180Z,101202.30
2017-07-15T09:35:47.928Z,101206.11
2017-07-15T09:38:16.630Z,101210.52
2017-07-15T09:40:45.090Z,101205.84
2017-07-15T09:43:13.431Z,101202.36
2017-07-15T09:45:41.952Z,101205.95
2017-07-15T09:48:10.303Z,101209.18
2017-07-15T09:50:38.657Z,101210.10
2017-07-15T09:53:07.412Z,101206.94
2017-07-15T09:55:35.752Z,101203.47
2017-07-15T09:58:04.111Z,101203.05
2017-07-15T10:00:32.847Z,101209.89
2017-07-15T10:03:01.204Z,101217.29
2017-07-15T10:05:29.566Z,101215.59
2017-07-15T10:07:57.938Z,101219.08
2017-07-15T10:10:26.300Z,101220.41
2017-07-15T10:12:54.661Z,101227.88
2017-07-15T10:15:23.009Z,101227.55
2017-07-15T10:17:51.495Z,101227.52
2017-07-15T10:20:19.910Z,101228.97
2017-07-15T10:22:48.264Z,101233.31
2017-07-15T10:25:16.611Z,101234.16
2017-07-15T10:27:45.031Z,101237.44
2017-07-15T10:30:13.397Z,101241.84
2017-07-15T10:32:41.738Z,101240.30
2017-07-15T10:35:10.101Z,101234.73
2017-07-15T10:37:38.461Z,101228.12
2017-07-15T10:40:07.093Z,101233.75
2017-07-15T10:42:35.436Z,101238.89
2017-07-15T10:45:03.832Z,101243.17
2017-07-15T10:47:32.610Z,101248.98
2017-07-15T10:50:01.385Z,101241.70
2017-07-15T10:52:29.747Z,101248.39
2017-07-15T10:54:58.102Z,101248.94
2017-07-15T10:57:26.451Z,101251.11
2017-07-15T10:59:54.806Z,101260.84
2017-07-15T11:02:23.160Z,101252.93
2017-07-15T11:04:51.502Z,101241.31
2017-07-15T11:07:19.847Z,101241.62
2017-07-15T11:09:48.205Z,101254.95
2017-07-15T11:12:16.555Z,101256.72
2017-07-15T11:14:44.916Z,101252.97
2017-07-15T11:17:13.256Z,101246.11
2017-07-15T11:19:41.620Z,101254.86
2017-07-15T11:22:09.974Z,101254.90
2017-07-15T11:24:38.451Z,101255.03
2017-07-15T11:27:06.853Z,101247.17
2017-07-15T11:29:35.197Z,101259.08
2017-07-15T11:32:03.571Z,101264.66
2017-07-15T11:34:31.926Z,101249.40
2017-07-15T11:37:00.689Z,101254.95
2017-07-15T11:39:29.031Z,101250.05
2017-07-15T11:41:57.384Z,101257.02
2017-07-15T11:44:26.131Z,101256.05
2017-07-15T11:46:54.500Z,101262.38
2017-07-15T11:49:22.857Z,101259.74
2017-07-15T11:51:51.337Z,101265.55
2017-07-15T11:54:19.688Z,101263.23
2017-07-15T11:56:48.049Z,101260.15
2017-07-15T11:59:16.400Z,101253.83
2017-07-15T12:01:44.748Z,101249.61
2017-07-15T12:04:13.156Z,101257.84
2017-07-15T12:06:41.498Z,101267.52
2017-07-15T12:09:09.911Z,101267.02
2017-07-15T12:11:38.279Z,101265.45
2017-07-15T12:14:06.640Z,101264.88
2017-07-15T12:16:34.991Z,101269.14
2017-07-15T12:19:03.532Z,101256.64
2017-07-15T12:21:31.875Z,101261.69
2017-07-15T12:24:00.632Z,101254.33
2017-07-15T12:26:28.978Z,101259.14
2017-07-15T12:28:57.336Z,101250.97
2017-07-15T12:31:25.692Z,101251.25
2017-07-15T12:33:54.436Z,101254.93
2017-07-15T12:36:22.802Z,101254.84
2017-07-15T12:38:51.152Z,101257.78
2017-07-15T12:41:19.680Z,101253.84
2017-07-15T12:43:48.024Z,101263.41
2017-07-15T12:46:16.372Z,101270.40
2017-07-15T12:48:45.130Z,101270.77
2017-07-15T12:51:13.485Z,101270.29
2017-07-15T12:53:42.129Z,101267.87
2017-07-15T12:56:10.880Z,101273.31
2017-07-15T12:58:39.240Z,101265.29
2017-07-15T13:01:07.591Z,101265.88
2017-07-15T13:03:36.348Z,101261.89
2017-07-15T13:06:04.946Z,101265.00
2017-07-15T13:08:33.890Z,101260.64
2017-07-15T13:11:02.229Z,101263.61
2017-07-15T13:13:30.582Z,101256.80
2017-07-15T13:15:58.936Z,101258.43
2017-07-15T13:18:27.291Z,101260.72
2017-07-15T13:20:55.653Z,101262.81
2017-07-15T13:23:24.004Z,101275.17
2017-07-15T13:25:52.369Z,101276.77
2017-07-15T13:28:20.981Z,101268.61
2017-07-15T13:30:49.744Z,101276.78
2017-07-15T13:33:18.109Z,101278.04
2017-07-15T13:35:46.460Z,101276.31
2017-07-15T13:38:15.391Z,101281.62
2017-07-15T13:40:43.748Z,101286.09
2017-07-15T13:43:12.114Z,101284.36
2017-07-15T13:45:40.629Z,101286.34
2017-07-15T13:48:09.242Z,101289.56
2017-07-15T13:50:37.996Z,101284.12
2017-07-15T13:53:06.360Z,101288.53
2017-07-15T13:55:34.694Z,101295.49
2017-07-15T13:58:03.455Z,101292.06
2017-07-15T14:00:31.798Z,101293.92
2017-07-15T14:03:00.157Z,101293.59
2017-07-15T14:05:28.498Z,101291.20
2017-07-15T14:07:57.065Z,101288.97
2017-07-15T14:10:25.411Z,101287.84
2017-07-15T14:12:53.772Z,101291.48
2017-07-15T14:15:22.534Z,101298.39
2017-07-15T14:17:50.886Z,101290.52
2017-07-15T14:20:19.264Z,101289.33
2017-07-15T14:22:47.628Z,101299.45
2017-07-15T14:25:16.012Z,101287.83
2017-07-15T14:27:44.646Z,101294.80
2017-07-15T14:30:13.390Z,101297.86
2017-07-15T14:32:41.749Z,101295.42
2017-07-15T14:35:10.390Z,101303.32
2017-07-15T14:37:38.740Z,101309.29
2017-07-15T14:40:07.092Z,101311.41
2017-07-15T14:42:35.448Z,101313.66
2017-07-15T14:45:04.183Z,101310.19
2017-07-15T14:47:32.539Z,101313.30
2017-07-15T14:50:00.896Z,101310.25
2017-07-15T14:52:29.650Z,101312.03
2017-07-15T14:54:58.069Z,101315.38
2017-07-15T14:57:26.428Z,101312.93
2017-07-15T14:59:54.773Z,101317.59
2017-07-15T15:02:23.127Z,101319.77
2017-07-15T15:04:51.480Z,101320.27
2017-07-15T15:07:20.237Z,101315.37
2017-07-15T15:09:48.590Z,101317.73
2017-07-15T15:12:17.185Z,101312.19
2017-07-15T15:14:45.631Z,101321.19
2017-07-15T15:17:13.991Z,101322.25
2017-07-15T15:19:42.758Z,101321.55
2017-07-15T15:22:11.099Z,101322.91
2017-07-15T15:24:39.471Z,101326.39
2017-07-15T15:27:07.829Z,101321.91
2017-07-15T15:29:36.174Z,101322.75
2017-07-15T15:32:04.519Z,101322.08
2017-07-15T15:34:33.202Z,101322.70
2017-07-15T15:37:01.553Z,101320.21
2017-07-15T15:39:29.894Z,101327.19
2017-07-15T15:41:58.252Z,101328.66
2017-07-15T15:44:26.634Z,101327.81
2017-07-15T15:46:54.998Z,101328.34
2017-07-15T15:49:23.385Z,101328.30
2017-07-15T15:51:51.744Z,101328.27
2017-07-15T15:54:20.504Z,101326.47
2017-07-15T15:56:49.257Z,101334.17
2017-07-15T15:59:17.600Z,101331.98
2017-07-15T16:01:46.311Z,101333.69
2017-07-15T16:04:14.655Z,101333.34
2017-07-15T16:06:43.007Z,101331.45
2017-07-15T16:09:11.775Z,101336.62
2017-07-15T16:11:40.127Z,101343.89
2017-07-15T16:14:08.760Z,101339.54
2017-07-15T16:16:37.111Z,101336.71
2017-07-15T16:19:05.485Z,101334.32
2017-07-15T16:21:33.828Z,101338.02
2017-07-15T16:24:02.299Z,101330.53
2017-07-15T16:26:30.645Z,101337.22
2017-07-15T16:28:59.026Z,101344.05
2017-07-15T16:31:27.390Z,101355.54
2017-07-15T16:33:55.737Z,101354.53
2017-07-15T16:36:24.105Z,101349.23
2017-07-15T16:38:52.456Z,101351.69
2017-07-15T16:41:20.816Z,101356.73
2017-07-15T16:43:49.155Z,101350.38
2017-07-15T16:46:17.510Z,101352.11
2017-07-15T16:48:45.852Z,101357.42
2017-07-15T16:51:14.613Z,101359.63
2017-07-15T16:53:42.957Z,101360.78
2017-07-15T16:56:11.297Z,101365.34
2017-07-15T16:58:39.663Z,101379.11
2017-07-15T17:01:08.008Z,101392.61
2017-07-15T17:03:36.373Z,101397.47
2017-07-15T17:06:04.718Z,101405.47
2017-07-15T17:08:33.066Z,101411.34
2017-07-15T17:11:01.422Z,101426.83
2017-07-15T17:13:29.787Z,101427.17
2017-07-15T17:15:58.150Z,101424.82
2017-07-15T17:18:27.021Z,101425.21
2017-07-15T17:20:55.363Z,101417.59
2017-07-15T17:23:23.744Z,101417.72
2017-07-15T17:25:52.109Z,101418.77
2017-07-15T17:28:20.515Z,101415.70
2017-07-15T17:30:48.872Z,101411.64
2017-07-15T17:33:17.250Z,101411.34
2017-07-15T17:35:45.609Z,101413.74
2017-07-15T17:38:14.352Z,101415.63
2017-07-15T17:40:42.929Z,101443.84
2017-07-15T17:43:11.322Z,101452.07
2017-07-15T17:45:39.669Z,101440.19
2017-07-15T17:48:08.037Z,101448.83
2017-07-15T17:50:36.393Z,101454.58
2017-07-15T17:53:05.167Z,101451.52
2017-07-15T17:55:33.930Z,101458.88
2017-07-15T17:58:02.282Z,101470.11
2017-07-15T18:00:30.637Z,101475.02
2017-07-15T18:02:59.001Z,101483.81
2017-07-15T18:05:27.756Z,101482.97
2017-07-15T18:07:56.104Z,101492.80
2017-07-15T18:10:24.442Z,101491.24
2017-07-15T18:12:53.401Z,101488.11
2017-07-15T18:15:21.741Z,101482.08
2017-07-15T18:17:50.103Z,101484.55
2017-07-15T18:20:18.846Z,101481.84
2017-07-15T18:22:47.187Z,101485.47
2017-07-15T18:25:15.539Z,101497.05
2017-07-15T18:27:44.289Z,101493.41
2017-07-15T18:30:12.639Z,101490.94
2017-07-15T18:32:40.980Z,101485.38
2017-07-15T18:35:09.341Z,101484.23
2017-07-15T18:37:37.693Z,101482.46
2017-07-15T18:40:06.060Z,101482.12
2017-07-15T18:42:34.402Z,101472.15
2017-07-15T18:45:03.347Z,101467.20
2017-07-15T18:47:31.712Z,101464.03
2017-07-15T18:50:00.065Z,101457.67
2017-07-15T18:52:29.149Z,101462.51
2017-07-15T18:54:57.891Z,101469.65
2017-07-15T18:57:26.250Z,101471.98
2017-07-15T18:59:54.604Z,101483.89
2017-07-15T19:02:23.347Z,101488.16
2017-07-15T19:04:51.705Z,101495.26
2017-07-15T19:07:20.066Z,101495.38
2017-07-15T19:09:48.419Z,101506.36
2017-07-15T19:12:17.192Z,101502.03
2017-07-15T19:14:45.549Z,101503.16
2017-07-15T19:17:14.032Z,101505.42
2017-07-15T19:19:42.512Z,101503.86
2017-07-15T19:22:11.147Z,101502.85
2017-07-15T19:24:39.506Z,101497.42
2017-07-15T19:27:07.854Z,101494.52
2017-07-15T19:29:36.212Z,101490.66
2017-07-15T19:32:04.566Z,101486.27
2017-07-15T19:34:33.552Z,101479.12
2017-07-15T19:37:02.289Z,101485.77
2017-07-15T19:39:30.644Z,101482.61
2017-07-15T19:41:58.997Z,101483.47
2017-07-15T19:44:27.741Z,101490.27
2017-07-15T19:46:56.088Z,101488.71
2017-07-15T19:49:24.596Z,101487.64
2017-07-15T19:51:52.949Z,101484.68
2017-07-15T19:54:21.286Z,101486.14
2017-07-15T19:56:49.635Z,101484.05
2017-07-15T19:59:17.979Z,101486.54
2017-07-15T20:01:46.345Z,101485.64
2017-07-15T20:04:15.337Z,101487.52
2017-07-15T20:06:44.092Z,101486.53
2017-07-15T20:09:12.436Z,101490.59
2017-07-15T20:11:40.801Z,101487.95
2017-07-15T20:14:09.148Z,101496.72
2017-07-15T20:16:37.700Z,101495.47
2017-07-15T20:19:06.048Z,101494.07
2017-07-15T20:21:34.400Z,101495.16
2017-07-15T20:24:03.147Z,101497.58
2017-07-15T20:26:31.496Z,101495.03
2017-07-15T20:28:59.853Z,101501.39
2017-07-15T20:31:28.599Z,101499.72
2017-07-15T20:33:56.979Z,101502.22
2017-07-15T20:36:30.827Z,101508.81
2017-07-15T20:38:59.575Z,101512.16
2017-07-15T20:41:27.920Z,101513.64
2017-07-15T20:43:56.295Z,101517.67
2017-07-15T20:46:24.653Z,101517.36
2017-07-15T20:48:53.416Z,101520.17
2017-07-15T20:51:21.784Z,101528.23
2017-07-15T20:54:06.938Z,101529.33
2017-07-15T20:56:35.297Z,101531.98
2017-07-15T20:59:03.917Z,101533.90
2017-07-15T21:01:32.265Z,101536.77
2017-07-15T21:04:00.632Z,101541.19
2017-07-15T21:06:29.296Z,101546.30
2017-07-15T21:08:58.031Z,101550.51
2017-07-15T21:11:26.392Z,101547.73
2017-07-15T21:13:54.739Z,101554.48
2017-07-15T21:16:23.490Z,101563.32
2017-07-15T21:18:51.846Z,101572.84
2017-07-15T21:21:20.551Z,101583.23
2017-07-15T21:23:48.961Z,101570.11
2017-07-15T21:26:17.318Z,101572.48
2017-07-15T21:28:45.677Z,101588.32
2017-07-15T21:31:14.033Z,101581.35
2017-07-15T21:33:42.393Z,101585.55
2017-07-15T21:36:11.135Z,101583.53
2017-07-15T21:38:39.487Z,101586.29
2017-07-15T21:41:07.831Z,101588.88
2017-07-15T21:43:36.178Z,101588.03
2017-07-15T21:46:04.527Z,101590.18
2017-07-15T21:48:32.880Z,101586.81
2017-07-15T21:51:01.614Z,101588.38
2017-07-15T21:53:30.199Z,101591.48
2017-07-15T21:55:58.543Z,101592.70
2017-07-15T21:58:26.886Z,101590.78
2017-07-15T22:00:55.239Z,101591.55
2017-07-15T22:03:23.583Z,101587.92
2017-07-15T22:05:51.935Z,101598.87
2017-07-15T22:08:20.279Z,101601.00
2017-07-15T22:10:48.633Z,101595.95
2017-07-15T22:13:16.974Z,101603.37
2017-07-15T22:15:45.724Z,101599.80
2017-07-15T22:18:14.077Z,101600.67
2017-07-15T22:20:42.669Z,101598.12
2017-07-15T22:23:11.006Z,101603.34
2017-07-15T22:25:41.953Z,101600.11
2017-07-15T22:28:10.704Z,101596.69
2017-07-15T22:30:39.319Z,101600.66
2017-07-15T22:33:07.646Z,101595.66
2017-07-15T22:35:35.986Z,101593.84
2017-07-15T22:38:04.740Z,101600.66
2017-07-15T22:40:33.086Z,101602.51
2017-07-15T22:43:01.452Z,101601.44
2017-07-15T22:45:29.799Z,101605.20
2017-07-15T22:47:58.338Z,101602.09
2017-07-15T22:50:26.726Z,101609.24
2017-07-15T22:52:55.070Z,101605.73
2017-07-15T22:55:23.431Z,101609.95
2017-07-15T22:57:52.815Z,101613.59
2017-07-15T23:00:21.171Z,101615.69
2017-07-15T23:02:49.520Z,101617.38
2017-07-15T23:05:17.879Z,101617.70
2017-07-15T23:07:46.230Z,101619.20
2017-07-15T23:10:14.775Z,101629.42
2017-07-15T23:12:43.119Z,101627.30
2017-07-15T23:15:11.863Z,101627.44
2017-07-15T23:17:40.216Z,101619.73
2017-07-15T23:20:08.587Z,101621.88
2017-07-15T23:22:36.943Z,101617.30
2017-07-15T23:25:05.686Z,101617.22
2017-07-15T23:27:34.038Z,101610.63
2017-07-15T23:30:02.384Z,101604.75
2017-07-15T23:32:31.131Z,101601.59
2017-07-15T23:34:59.479Z,101594.84
2017-07-15T23:37:27.839Z,101601.38
2017-07-15T23:39:56.587Z,101604.45
2017-07-15T23:42:24.931Z,101598.02
2017-07-15T23:44:53.286Z,101599.86
2017-07-15T23:47:21.634Z,101599.27
2017-07-15T23:49:49.987Z,101597.63
2017-07-15T23:52:18.338Z,101594.48
2017-07-15T23:54:46.692Z,101599.03
2017-07-15T23:57:15.435Z,101598.93
2017-07-15T23:59:44.663Z,101598.71
